createdAt,value
2023-03-26T00:02:28.363Z,97293.53
2023-03-26T00:32:31.492Z,97303.53
2023-03-26T01:02:34.634Z,97293.53
2023-03-26T01:32:50.274Z,97261.13
2023-03-26T02:03:01.509Z,97231.50
2023-03-26T02:33:04.439Z,97179.53
2023-03-26T03:03:07.828Z,97142.16
2023-03-26T03:33:10.770Z,97119.53
2023-03-26T04:03:13.871Z,97087.63
2023-03-26T04:33:16.953Z,97035.00
2023-03-26T05:03:19.984Z,96973.84
2023-03-26T05:33:23.340Z,96928.03
2023-03-26T06:03:26.561Z,96859.88
2023-03-26T06:33:29.581Z,96823.94
2023-03-26T07:03:32.912Z,96806.81
2023-03-26T07:33:40.008Z,96778.56
2023-03-26T08:04:00.403Z,96732.47
2023-03-26T08:34:23.227Z,96694.53
2023-03-26T09:04:42.559Z,96692.63
2023-03-26T09:35:06.889Z,96646.81
2023-03-26T10:05:35.414Z,96623.50
2023-03-26T10:35:48.060Z,96614.91
2023-03-26T11:05:58.958Z,96579.09
2023-03-26T11:36:05.212Z,96552.28
2023-03-26T12:06:23.164Z,96525.47
2023-03-26T12:36:31.190Z,96482.88
2023-03-26T13:07:00.021Z,96464.72
2023-03-26T13:37:06.601Z,96451.66
2023-03-26T14:07:13.223Z,96465.91
2023-03-26T14:37:28.298Z,96505.88
2023-03-26T15:07:47.866Z,96512.63
2023-03-26T15:38:15.258Z,96528.88
2023-03-26T16:08:25.276Z,96548.38
2023-03-26T16:38:46.803Z,96569.41
2023-03-26T17:08:56.384Z,96605.25
2023-03-26T17:39:20.789Z,96647.66
2023-03-26T18:09:39.314Z,96668.28
2023-03-26T18:39:42.565Z,96698.69
2023-03-26T19:09:45.754Z,96754.16
2023-03-26T19:39:50.886Z,96805.66
2023-03-26T20:09:54.372Z,96847.31
2023-03-26T20:39:57.315Z,96904.09
2023-03-26T21:10:01.071Z,96960.31
2023-03-26T21:40:05.277Z,97020.03
2023-03-26T22:10:08.632Z,97084.47
2023-03-26T22:40:12.077Z,97148.69
2023-03-26T23:10:15.159Z,97246.47
2023-03-26T23:40:18.315Z,97322.28
